createdAt,value
2019-03-30T00:00:51.378Z,91.50
2019-03-30T00:03:18.560Z,91.70
2019-03-30T00:05:45.373Z,92.30
2019-03-30T00:08:12.209Z,92.40
2019-03-30T00:10:38.996Z,93.20
2019-03-30T00:13:05.833Z,93.90
2019-03-30T00:15:32.668Z,93.90
2019-03-30T00:17:59.500Z,93.60
2019-03-30T00:20:26.337Z,92.60
2019-03-30T00:22:53.185Z,92.30
2019-03-30T00:25:19.964Z,92.40
2019-03-30T00:27:47.169Z,92.10
2019-03-30T00:30:14.126Z,91.40
2019-03-30T00:32:40.923Z,90.70
2019-03-30T00:35:07.866Z,90.70
2019-03-30T00:37:34.657Z,91.00
2019-03-30T00:40:01.549Z,90.90
2019-03-30T00:42:29.217Z,90.60
2019-03-30T00:44:56.080Z,90.00
2019-03-30T00:47:22.961Z,90.50
2019-03-30T00:49:50.261Z,91.20
2019-03-30T00:52:17.304Z,90.90
2019-03-30T00:54:44.099Z,91.20
2019-03-30T00:57:10.980Z,90.90
2019-03-30T00:59:37.765Z,91.10
2019-03-30T01:02:04.625Z,92.50
2019-03-30T01:04:31.521Z,93.30
2019-03-30T01:06:58.344Z,93.60
2019-03-30T01:09:25.189Z,93.80
2019-03-30T01:11:51.988Z,94.20
2019-03-30T01:14:19.524Z,93.80
2019-03-30T01:16:46.436Z,94.10
2019-03-30T01:19:13.284Z,94.20
2019-03-30T01:21:40.164Z,94.60
2019-03-30T01:24:07.000Z,95.40
2019-03-30T01:26:34.256Z,95.30
2019-03-30T01:29:01.089Z,94.90
2019-03-30T01:31:28.012Z,94.70
2019-03-30T01:33:54.880Z,93.60
2019-03-30T01:36:22.481Z,93.40
2019-03-30T01:38:49.364Z,93.30
2019-03-30T01:41:16.233Z,93.80
2019-03-30T01:43:43.019Z,93.30
2019-03-30T01:46:09.911Z,94.10
2019-03-30T01:48:36.769Z,93.70
2019-03-30T01:51:03.627Z,94.30
2019-03-30T01:53:30.526Z,94.20
2019-03-30T01:55:57.362Z,93.70
2019-03-30T01:58:24.280Z,93.20
2019-03-30T02:00:51.339Z,92.50
2019-03-30T02:03:18.226Z,92.10
2019-03-30T02:05:45.180Z,92.50
2019-03-30T02:08:12.017Z,92.60
2019-03-30T02:10:40.689Z,92.70
2019-03-30T02:13:07.745Z,92.60
2019-03-30T02:15:34.680Z,92.80
2019-03-30T02:18:01.679Z,92.70
2019-03-30T02:20:41.146Z,93.70
2019-03-30T02:23:08.148Z,93.80
2019-03-30T02:25:35.111Z,93.70
2019-03-30T02:28:02.182Z,93.90
2019-03-30T02:30:29.127Z,93.90
2019-03-30T02:32:56.202Z,93.90
2019-03-30T02:35:26.431Z,93.60
2019-03-30T02:37:51.891Z,94.00
2019-03-30T02:40:18.772Z,93.40
2019-03-30T02:42:45.666Z,93.20
2019-03-30T02:45:12.599Z,93.70
2019-03-30T02:47:39.490Z,94.00
2019-03-30T02:50:06.513Z,94.30
2019-03-30T02:52:53.032Z,93.60
2019-03-30T02:55:19.857Z,93.80
2019-03-30T02:57:46.648Z,94.30
2019-03-30T03:00:17.067Z,94.00
2019-03-30T03:02:43.815Z,94.20
2019-03-30T03:05:11.263Z,93.30
2019-03-30T03:07:38.041Z,93.70
2019-03-30T03:10:05.425Z,93.90
2019-03-30T03:12:32.273Z,93.90
2019-03-30T03:14:59.105Z,94.50
2019-03-30T03:17:25.895Z,95.00
2019-03-30T03:19:52.735Z,94.80
2019-03-30T03:22:19.586Z,95.40
2019-03-30T03:24:46.364Z,95.40
2019-03-30T03:27:13.201Z,95.50
2019-03-30T03:29:43.334Z,95.40
2019-03-30T03:32:08.638Z,95.60
2019-03-30T03:34:35.474Z,95.70
2019-03-30T03:37:02.253Z,96.00
2019-03-30T03:39:29.096Z,96.20
2019-03-30T03:41:55.874Z,96.70
2019-03-30T03:44:22.712Z,96.20
2019-03-30T03:46:49.554Z,96.60
2019-03-30T03:49:16.393Z,96.50
2019-03-30T03:51:43.170Z,96.60
2019-03-30T03:54:10.006Z,96.60
2019-03-30T03:56:38.302Z,96.30
2019-03-30T03:59:05.545Z,95.90
2019-03-30T04:01:34.030Z,95.80
2019-03-30T04:04:02.210Z,95.10
2019-03-30T04:06:31.657Z,94.80
2019-03-30T04:09:01.349Z,94.90
2019-03-30T04:11:30.237Z,95.60
2019-03-30T04:13:59.298Z,95.50
2019-03-30T04:16:26.109Z,94.90
2019-03-30T04:18:52.889Z,94.80
2019-03-30T04:21:19.772Z,94.60
2019-03-30T04:23:46.609Z,94.10
2019-03-30T04:26:13.690Z,94.00
2019-03-30T04:28:40.513Z,94.20
2019-03-30T04:31:07.365Z,93.70
2019-03-30T04:33:34.154Z,94.30
2019-03-30T04:36:00.989Z,94.70
2019-03-30T04:38:27.831Z,94.50
2019-03-30T04:40:57.953Z,93.80
2019-03-30T04:43:24.730Z,93.60
2019-03-30T04:45:51.579Z,93.70
2019-03-30T04:48:18.349Z,93.70
2019-03-30T04:50:45.184Z,93.70
2019-03-30T04:53:12.050Z,93.40
2019-03-30T04:55:38.837Z,93.80
2019-03-30T04:58:09.101Z,94.10
2019-03-30T05:00:34.448Z,94.40
2019-03-30T05:03:01.208Z,94.50
2019-03-30T05:05:28.049Z,95.50
2019-03-30T05:07:54.936Z,94.90
2019-03-30T05:10:21.772Z,94.00
2019-03-30T05:12:48.604Z,94.20
2019-03-30T05:15:15.388Z,94.20
2019-03-30T05:17:47.463Z,94.10
2019-03-30T05:20:11.912Z,93.80
2019-03-30T05:22:38.748Z,93.70
2019-03-30T05:25:05.749Z,94.70
2019-03-30T05:27:32.532Z,94.30
2019-03-30T05:29:59.316Z,92.80
2019-03-30T05:32:26.156Z,92.00
2019-03-30T05:34:52.932Z,91.80
2019-03-30T05:37:19.790Z,91.30
2019-03-30T05:39:46.548Z,91.00
2019-03-30T05:42:13.377Z,91.40
2019-03-30T05:44:40.163Z,92.10
2019-03-30T05:47:06.996Z,93.10
2019-03-30T05:49:33.829Z,93.00
2019-03-30T05:52:00.694Z,93.40
2019-03-30T05:54:27.561Z,92.90
2019-03-30T05:56:54.401Z,93.60
2019-03-30T05:59:21.178Z,93.40
2019-03-30T06:01:47.975Z,93.00
2019-03-30T06:04:14.821Z,92.60
2019-03-30T06:06:41.657Z,92.20
2019-03-30T06:09:08.488Z,91.90
2019-03-30T06:11:35.317Z,90.50
2019-03-30T06:14:02.152Z,90.50
2019-03-30T06:16:28.944Z,90.30
2019-03-30T06:18:55.780Z,90.40
2019-03-30T06:21:22.562Z,89.90
2019-03-30T06:23:49.392Z,89.40
2019-03-30T06:26:16.221Z,88.40
2019-03-30T06:28:43.057Z,88.20
2019-03-30T06:31:09.841Z,87.30
2019-03-30T06:33:36.684Z,86.60
2019-03-30T06:36:03.465Z,85.80
2019-03-30T06:38:30.318Z,85.60
2019-03-30T06:40:57.100Z,85.40
2019-03-30T06:43:23.985Z,86.40
2019-03-30T06:45:51.187Z,86.20
2019-03-30T06:48:17.977Z,86.00
2019-03-30T06:50:44.817Z,85.30
2019-03-30T06:53:11.656Z,85.30
2019-03-30T06:55:38.647Z,85.30
2019-03-30T06:58:05.413Z,84.30
2019-03-30T07:00:33.557Z,84.00
2019-03-30T07:03:03.096Z,83.20
2019-03-30T07:05:32.592Z,83.50
2019-03-30T07:08:00.333Z,82.40
2019-03-30T07:10:27.129Z,81.30
2019-03-30T07:12:54.860Z,81.30
2019-03-30T07:15:25.005Z,80.10
2019-03-30T07:17:55.393Z,79.50
2019-03-30T07:20:24.937Z,79.50
2019-03-30T07:22:51.731Z,78.00
2019-03-30T07:25:18.589Z,78.60
2019-03-30T07:27:45.377Z,78.10
2019-03-30T07:30:12.257Z,77.90
2019-03-30T07:32:39.104Z,78.20
2019-03-30T07:35:05.898Z,77.40
2019-03-30T07:37:32.756Z,76.80
2019-03-30T07:39:59.537Z,77.20
2019-03-30T07:42:26.368Z,77.50
2019-03-30T07:44:53.206Z,77.10
2019-03-30T07:47:20.045Z,76.40
2019-03-30T07:49:46.877Z,75.50
2019-03-30T07:52:13.665Z,75.50
2019-03-30T07:54:40.506Z,75.60
2019-03-30T07:57:16.536Z,75.10
2019-03-30T07:59:35.925Z,74.30
2019-03-30T08:02:02.711Z,75.30
2019-03-30T08:04:30.061Z,74.70
2019-03-30T08:06:56.892Z,74.30
2019-03-30T08:09:23.710Z,73.50
2019-03-30T08:11:50.552Z,72.60
2019-03-30T08:14:18.532Z,73.20
2019-03-30T08:16:45.328Z,73.30
2019-03-30T08:19:12.757Z,74.80
2019-03-30T08:21:39.532Z,74.80
2019-03-30T08:24:07.164Z,73.20
2019-03-30T08:26:35.582Z,71.80
2019-03-30T08:29:02.583Z,71.40
2019-03-30T08:31:29.412Z,70.10
2019-03-30T08:33:56.204Z,71.60
2019-03-30T08:36:23.108Z,71.30
2019-03-30T08:38:49.888Z,69.30
2019-03-30T08:41:16.729Z,70.50
2019-03-30T08:43:44.044Z,70.70
2019-03-30T08:46:10.901Z,69.30
2019-03-30T08:48:38.789Z,69.20
2019-03-30T08:51:05.720Z,69.50
2019-03-30T08:53:32.546Z,71.50
2019-03-30T08:55:59.397Z,70.20
2019-03-30T08:58:26.194Z,70.30
2019-03-30T09:00:53.034Z,70.80
2019-03-30T09:03:19.877Z,71.20
2019-03-30T09:05:47.468Z,70.80
2019-03-30T09:08:14.400Z,70.70
2019-03-30T09:10:41.255Z,70.20
2019-03-30T09:13:08.041Z,69.90
2019-03-30T09:15:34.833Z,70.30
2019-03-30T09:18:01.687Z,70.90
2019-03-30T09:20:28.464Z,71.20
2019-03-30T09:22:55.332Z,70.90
2019-03-30T09:25:22.165Z,70.50
2019-03-30T09:27:48.941Z,68.90
2019-03-30T09:30:15.779Z,69.70
2019-03-30T09:32:45.058Z,69.20
2019-03-30T09:35:11.292Z,69.50
2019-03-30T09:37:38.077Z,69.40
2019-03-30T09:40:06.640Z,69.50
2019-03-30T09:42:33.440Z,70.50
2019-03-30T09:45:00.388Z,70.20
2019-03-30T09:47:27.177Z,70.90
2019-03-30T09:49:53.965Z,69.80
2019-03-30T09:52:20.863Z,68.70
2019-03-30T09:54:47.660Z,69.20
2019-03-30T09:57:14.524Z,69.30
2019-03-30T09:59:41.465Z,69.40
2019-03-30T10:02:08.297Z,69.10
2019-03-30T10:04:35.141Z,68.60
2019-03-30T10:07:01.985Z,68.40
2019-03-30T10:09:28.869Z,68.30
2019-03-30T10:11:55.726Z,68.60
2019-03-30T10:14:22.565Z,68.00
2019-03-30T10:16:49.357Z,67.70
2019-03-30T10:19:16.197Z,68.20
2019-03-30T10:21:42.981Z,67.80
2019-03-30T10:24:10.230Z,67.50
2019-03-30T10:26:37.086Z,65.60
2019-03-30T10:29:03.916Z,65.30
2019-03-30T10:31:30.703Z,64.90
2019-03-30T10:33:57.544Z,65.10
2019-03-30T10:36:24.399Z,68.40
2019-03-30T10:38:51.176Z,66.80
2019-03-30T10:41:18.287Z,68.30
2019-03-30T10:43:45.200Z,67.20
2019-03-30T10:46:12.043Z,67.10
2019-03-30T10:48:38.839Z,67.60
2019-03-30T10:51:05.650Z,69.60
2019-03-30T10:53:32.496Z,63.20
2019-03-30T10:55:59.354Z,68.10
2019-03-30T10:58:26.148Z,65.70
2019-03-30T11:00:52.965Z,64.90
2019-03-30T11:03:19.813Z,64.90
2019-03-30T11:05:46.694Z,65.30
2019-03-30T11:08:13.481Z,64.40
2019-03-30T11:10:40.249Z,64.10
2019-03-30T11:13:07.097Z,62.40
2019-03-30T11:15:34.389Z,66.50
2019-03-30T11:18:01.393Z,65.20
2019-03-30T11:20:28.253Z,63.60
2019-03-30T11:22:55.093Z,64.40
2019-03-30T11:25:21.936Z,63.20
2019-03-30T11:27:48.726Z,65.10
2019-03-30T11:30:15.509Z,63.30
2019-03-30T11:32:42.358Z,61.80
2019-03-30T11:35:09.200Z,62.80
2019-03-30T11:37:36.055Z,60.60
2019-03-30T11:40:05.541Z,60.30
2019-03-30T11:42:32.342Z,57.60
2019-03-30T11:44:59.236Z,60.40
2019-03-30T11:47:26.072Z,60.30
2019-03-30T11:49:52.862Z,60.10
2019-03-30T11:52:19.695Z,59.10
2019-03-30T11:54:46.491Z,62.00
2019-03-30T11:57:13.388Z,57.50
2019-03-30T11:59:40.747Z,55.30
2019-03-30T12:02:07.580Z,54.00
2019-03-30T12:04:34.369Z,55.80
2019-03-30T12:07:01.210Z,56.70
2019-03-30T12:09:29.955Z,57.30
2019-03-30T12:11:56.797Z,58.60
2019-03-30T12:14:24.472Z,57.60
2019-03-30T12:16:51.313Z,62.10
2019-03-30T12:19:18.230Z,58.20
2019-03-30T12:21:45.085Z,55.20
2019-03-30T12:24:11.877Z,61.00
2019-03-30T12:26:38.724Z,61.60
2019-03-30T12:29:05.652Z,60.60
2019-03-30T12:31:32.504Z,60.50
2019-03-30T12:33:59.366Z,60.20
2019-03-30T12:36:26.164Z,60.30
2019-03-30T12:38:52.949Z,59.80
2019-03-30T12:41:19.796Z,60.10
2019-03-30T12:43:46.576Z,58.60
2019-03-30T12:46:13.412Z,59.50
2019-03-30T12:48:40.206Z,59.40
2019-03-30T12:51:07.054Z,59.20
2019-03-30T12:53:33.872Z,56.80
2019-03-30T12:56:00.726Z,58.60
2019-03-30T12:58:29.012Z,58.90
2019-03-30T13:00:55.806Z,58.30
2019-03-30T13:03:22.632Z,61.30
2019-03-30T13:05:49.841Z,60.40
2019-03-30T13:08:16.687Z,61.40
2019-03-30T13:10:45.406Z,63.10
2019-03-30T13:13:12.180Z,62.90
2019-03-30T13:15:38.993Z,63.40
2019-03-30T13:18:05.844Z,63.50
2019-03-30T13:20:32.638Z,62.40
2019-03-30T13:22:59.428Z,61.10
2019-03-30T13:25:26.264Z,60.60
2019-03-30T13:27:53.491Z,60.00
2019-03-30T13:30:21.084Z,59.10
2019-03-30T13:32:47.915Z,59.00
2019-03-30T13:35:14.710Z,58.30
2019-03-30T13:37:41.636Z,58.60
2019-03-30T13:40:09.397Z,58.50
2019-03-30T13:42:36.186Z,58.40
2019-03-30T13:45:04.949Z,59.10
2019-03-30T13:47:31.873Z,60.30
2019-03-30T13:49:58.788Z,57.40
2019-03-30T13:52:25.685Z,58.80
2019-03-30T13:54:52.517Z,57.80
2019-03-30T13:57:22.640Z,58.90
2019-03-30T13:59:49.435Z,58.00
2019-03-30T14:02:17.384Z,57.50
2019-03-30T14:04:44.223Z,56.90
2019-03-30T14:07:11.081Z,57.00
2019-03-30T14:09:37.913Z,55.10
2019-03-30T14:12:04.773Z,55.50
2019-03-30T14:14:32.157Z,55.30
2019-03-30T14:16:58.997Z,54.20
2019-03-30T14:19:25.840Z,56.40
2019-03-30T14:21:52.745Z,55.40
2019-03-30T14:24:19.983Z,54.30
2019-03-30T14:26:46.865Z,54.30
2019-03-30T14:29:13.644Z,55.20
2019-03-30T14:31:42.455Z,56.50
2019-03-30T14:34:09.297Z,55.90
2019-03-30T14:36:36.243Z,56.50
2019-03-30T14:39:05.683Z,55.10
2019-03-30T14:41:32.536Z,55.20
2019-03-30T14:43:59.308Z,55.10
2019-03-30T14:46:26.249Z,55.30
2019-03-30T14:48:53.051Z,54.90
2019-03-30T14:51:19.832Z,56.30
2019-03-30T14:53:46.685Z,56.50
2019-03-30T14:56:13.972Z,57.60
2019-03-30T14:58:40.827Z,55.30
2019-03-30T15:01:07.765Z,54.60
2019-03-30T15:03:34.669Z,53.50
2019-03-30T15:06:01.518Z,54.20
2019-03-30T15:08:28.453Z,55.30
2019-03-30T15:10:55.233Z,57.30
2019-03-30T15:13:22.073Z,58.50
2019-03-30T15:15:48.882Z,58.50
2019-03-30T15:18:15.716Z,58.70
2019-03-30T15:20:42.505Z,60.00
2019-03-30T15:23:09.392Z,57.50
2019-03-30T15:25:36.189Z,56.50
2019-03-30T15:28:03.027Z,57.20
2019-03-30T15:30:29.865Z,57.70
2019-03-30T15:32:56.649Z,56.70
2019-03-30T15:35:23.497Z,56.50
2019-03-30T15:37:50.326Z,55.20
2019-03-30T15:40:17.160Z,55.30
2019-03-30T15:42:43.944Z,56.10
2019-03-30T15:45:11.249Z,56.20
2019-03-30T15:47:38.132Z,58.40
2019-03-30T15:50:05.824Z,59.70
2019-03-30T15:52:32.668Z,60.10
2019-03-30T15:54:59.509Z,60.20
2019-03-30T15:57:26.301Z,60.50
2019-03-30T15:59:53.132Z,60.30
2019-03-30T16:02:20.421Z,60.70
2019-03-30T16:04:47.267Z,61.70
2019-03-30T16:07:14.066Z,61.50
2019-03-30T16:09:40.900Z,61.00
2019-03-30T16:12:07.728Z,61.80
2019-03-30T16:14:34.566Z,61.30
2019-03-30T16:17:01.349Z,61.40
2019-03-30T16:19:28.194Z,61.10
2019-03-30T16:21:55.036Z,61.40
2019-03-30T16:24:22.447Z,61.50
2019-03-30T16:26:49.918Z,61.70
2019-03-30T16:29:16.837Z,61.70
2019-03-30T16:31:43.618Z,61.30
2019-03-30T16:34:10.596Z,60.90
2019-03-30T16:36:37.377Z,60.10
2019-03-30T16:39:05.614Z,61.00
2019-03-30T16:41:32.448Z,61.50
2019-03-30T16:43:59.389Z,61.70
2019-03-30T16:46:26.163Z,61.90
2019-03-30T16:48:53.056Z,61.90
2019-03-30T16:51:19.908Z,62.60
2019-03-30T16:53:47.446Z,62.10
2019-03-30T16:56:14.372Z,61.80
2019-03-30T16:58:41.212Z,62.10
2019-03-30T17:01:07.997Z,61.50
2019-03-30T17:03:34.836Z,62.50
2019-03-30T17:06:01.673Z,62.50
2019-03-30T17:08:28.512Z,60.90
2019-03-30T17:10:55.297Z,61.20
2019-03-30T17:13:22.149Z,61.90
2019-03-30T17:15:48.939Z,62.40
2019-03-30T17:18:15.776Z,62.10
2019-03-30T17:20:42.562Z,61.30
2019-03-30T17:23:09.384Z,62.20
2019-03-30T17:25:36.220Z,62.70
2019-03-30T17:28:06.696Z,62.90
2019-03-30T17:30:31.888Z,63.50
2019-03-30T17:32:58.668Z,64.00
2019-03-30T17:35:25.517Z,63.40
2019-03-30T17:37:52.401Z,64.20
2019-03-30T17:40:19.188Z,64.40
2019-03-30T17:42:46.040Z,64.60
2019-03-30T17:45:13.162Z,64.80
2019-03-30T17:47:39.940Z,65.40
2019-03-30T17:50:07.229Z,66.00
2019-03-30T17:52:34.064Z,66.70
2019-03-30T17:55:00.902Z,67.00
2019-03-30T17:57:27.690Z,67.40
2019-03-30T17:59:54.516Z,68.10
2019-03-30T18:02:23.127Z,68.00
2019-03-30T18:04:49.945Z,68.30
2019-03-30T18:07:16.730Z,68.60
2019-03-30T18:09:43.567Z,69.00
2019-03-30T18:12:10.410Z,69.20
2019-03-30T18:14:37.753Z,69.40
2019-03-30T18:17:04.549Z,69.40
2019-03-30T18:19:31.388Z,69.50
2019-03-30T18:21:58.222Z,69.70
2019-03-30T18:24:25.368Z,69.80
2019-03-30T18:26:52.140Z,70.00
2019-03-30T18:29:18.997Z,70.40
2019-03-30T18:31:45.842Z,70.70
2019-03-30T18:34:13.036Z,70.80
2019-03-30T18:36:40.921Z,70.90
2019-03-30T18:39:09.743Z,71.00
2019-03-30T18:41:36.497Z,71.10
2019-03-30T18:44:03.285Z,71.10
2019-03-30T18:46:30.120Z,71.50
2019-03-30T18:48:57.169Z,72.00
2019-03-30T18:51:24.008Z,72.00
2019-03-30T18:53:51.648Z,71.90
2019-03-30T18:56:18.436Z,72.30
2019-03-30T18:58:45.277Z,72.50
2019-03-30T19:01:12.120Z,72.60
2019-03-30T19:03:38.953Z,73.00
2019-03-30T19:06:05.733Z,73.00
2019-03-30T19:08:34.558Z,73.00
2019-03-30T19:11:01.222Z,73.10
2019-03-30T19:13:28.010Z,73.20
2019-03-30T19:15:54.850Z,73.50
2019-03-30T19:18:21.640Z,74.10
2019-03-30T19:20:48.473Z,74.20
2019-03-30T19:23:15.408Z,74.10
2019-03-30T19:25:42.207Z,74.10
2019-03-30T19:28:09.057Z,74.30
2019-03-30T19:30:35.873Z,74.40
2019-03-30T19:33:03.048Z,74.50
2019-03-30T19:35:29.840Z,74.80
2019-03-30T19:37:56.681Z,74.80
2019-03-30T19:40:23.518Z,74.90
2019-03-30T19:42:50.348Z,75.00
2019-03-30T19:45:17.181Z,75.00
2019-03-30T19:47:44.018Z,75.20
2019-03-30T19:50:11.081Z,75.50
2019-03-30T19:52:39.968Z,75.40
2019-03-30T19:55:06.557Z,75.50
2019-03-30T19:57:33.545Z,75.70
2019-03-30T20:00:00.410Z,75.90
2019-03-30T20:02:27.244Z,76.60
2019-03-30T20:04:54.094Z,76.60
2019-03-30T20:07:20.972Z,76.80
2019-03-30T20:09:48.923Z,77.10
2019-03-30T20:12:15.742Z,77.30
2019-03-30T20:14:42.740Z,77.20
2019-03-30T20:17:09.577Z,77.30
2019-03-30T20:19:36.359Z,77.50
2019-03-30T20:22:03.185Z,77.60
2019-03-30T20:24:30.501Z,77.70
2019-03-30T20:26:57.325Z,78.00
2019-03-30T20:29:25.432Z,78.10
2019-03-30T20:31:52.700Z,78.20
2019-03-30T20:34:19.545Z,79.20
2019-03-30T20:36:46.344Z,79.90
2019-03-30T20:39:13.189Z,80.40
2019-03-30T20:41:40.364Z,81.10
2019-03-30T20:44:07.149Z,81.50
2019-03-30T20:46:34.004Z,81.60
2019-03-30T20:49:00.892Z,81.30
2019-03-30T20:51:28.116Z,80.90
2019-03-30T20:53:54.910Z,80.70
2019-03-30T20:56:21.740Z,80.80
2019-03-30T20:58:48.537Z,80.70
2019-03-30T21:01:15.389Z,81.20
2019-03-30T21:03:42.168Z,81.60
2019-03-30T21:06:08.960Z,82.00
2019-03-30T21:08:35.796Z,82.20
2019-03-30T21:11:02.577Z,82.30
2019-03-30T21:13:30.857Z,82.50
2019-03-30T21:15:57.883Z,82.60
2019-03-30T21:18:24.784Z,82.40
2019-03-30T21:20:51.745Z,82.50
2019-03-30T21:23:18.690Z,82.60
2019-03-30T21:25:45.713Z,82.60
2019-03-30T21:28:12.719Z,82.70
2019-03-30T21:30:40.108Z,82.80
2019-03-30T21:33:07.020Z,83.00
2019-03-30T21:35:34.009Z,83.30
2019-03-30T21:38:01.014Z,83.10
2019-03-30T21:40:29.014Z,83.20
2019-03-30T21:42:55.949Z,83.50
2019-03-30T21:45:22.922Z,83.60
2019-03-30T21:47:49.860Z,83.60
2019-03-30T21:50:16.710Z,83.60
2019-03-30T21:52:43.561Z,83.50
2019-03-30T21:55:10.513Z,83.80
2019-03-30T21:57:37.307Z,83.90
2019-03-30T22:00:10.598Z,83.90
2019-03-30T22:02:35.243Z,84.10
2019-03-30T22:05:02.480Z,84.40
2019-03-30T22:07:29.373Z,84.40
2019-03-30T22:09:57.025Z,84.30
2019-03-30T22:12:23.813Z,84.10
2019-03-30T22:14:50.650Z,83.90
2019-03-30T22:17:17.505Z,84.10
2019-03-30T22:19:44.297Z,84.40
2019-03-30T22:22:11.088Z,84.90
2019-03-30T22:24:37.925Z,84.70
2019-03-30T22:27:04.774Z,84.40
2019-03-30T22:29:31.743Z,84.40
2019-03-30T22:31:58.938Z,84.60
2019-03-30T22:34:25.925Z,84.80
2019-03-30T22:36:52.689Z,84.50
2019-03-30T22:39:19.574Z,84.60
2019-03-30T22:41:46.705Z,84.60
2019-03-30T22:44:13.537Z,84.30
2019-03-30T22:46:40.376Z,84.10
2019-03-30T22:49:07.209Z,84.40
2019-03-30T22:51:33.992Z,85.50
2019-03-30T22:54:00.778Z,85.80
2019-03-30T22:56:27.614Z,85.90
2019-03-30T22:58:54.404Z,85.50
2019-03-30T23:01:22.450Z,85.50
2019-03-30T23:03:49.338Z,85.80
2019-03-30T23:06:16.181Z,85.90
2019-03-30T23:08:42.962Z,85.40
2019-03-30T23:11:09.800Z,85.00
2019-03-30T23:13:36.591Z,84.80
2019-03-30T23:16:04.368Z,85.10
2019-03-30T23:18:31.205Z,85.00
2019-03-30T23:20:57.993Z,84.80
2019-03-30T23:23:24.848Z,84.90
2019-03-30T23:25:51.673Z,84.50
2019-03-30T23:28:18.461Z,84.30
2019-03-30T23:30:54.228Z,84.30
2019-03-30T23:33:13.929Z,84.70
2019-03-30T23:35:40.757Z,85.70
2019-03-30T23:38:07.595Z,86.20
2019-03-30T23:40:34.373Z,86.50
2019-03-30T23:43:01.225Z,86.90
2019-03-30T23:45:28.021Z,87.20
2019-03-30T23:47:54.856Z,87.40
2019-03-30T23:50:21.693Z,87.10
2019-03-30T23:52:48.537Z,86.80
2019-03-30T23:55:15.325Z,86.60
2019-03-30T23:57:42.109Z,86.60
